Latest Weather Observations for Wulungurru (Kintore)

IDD60801

Issued at 4:31 pm CST Wednesday 4 March 2015 (issued every 30 minutes, with the page automatically refreshed every 10 minutes)

About weather observations | Map of weather stations | Latest weather observations for NT | Other Formats
Station Details ID: 015664 Name: WALUNGURRU AIRPORT Lat: -23.27 Lon: 129.38 Height: 454.3 m
Data from the previous 72 hours. | See also: Recent months at Wulungurru (Kintore)
Date/Time
CST
Temp
°C
App
Temp
°C
Dew
Point
Rel
Hum
%
Delta-T
°C
Wind Press
QNH
hPa
Press
MSL
hPa
Rain
since 9 am
mm
Dir
 
Spd
km/h
Gust
km/h
Spd
kts
Gust
kts
04/04:30pm 39.7 37.3 12.5 20 16.9 ENE 17 24 9 13 1010.0 - 0.0
04/04:00pm 40.8 38.0 12.6 19 17.6 E 19 28 10 15 1010.0 - 0.0
04/03:30pm 39.2 39.7 14.9 23 15.6 SSE 6 19 3 10 1010.3 - 0.0
04/03:00pm 38.6 37.0 15.0 24 15.1 ENE 17 24 9 13 1010.6 1007.6 0.0
04/02:30pm 37.9 37.9 16.2 27 14.1 ENE 11 30 6 16 1011.1 - 0.0
04/02:00pm 38.1 37.2 15.8 26 14.4 NE 15 22 8 12 1011.5 - 0.0
04/01:30pm 38.9 36.8 15.3 25 15.2 NE 20 30 11 16 1011.7 - 0.0
04/01:00pm 38.7 38.7 18.0 29 13.8 NE 15 22 8 12 1012.1 - 0.0
04/12:30pm 37.9 37.7 16.8 29 13.8 NE 13 20 7 11 1012.6 - 0.0
04/12:00pm 37.1 37.7 18.6 33 12.4 ENE 13 20 7 11 1012.8 1009.9 0.0
04/11:30am 36.6 37.6 18.6 34 12.0 E 11 17 6 9 1013.3 - 0.0
04/11:00am 35.5 37.6 19.0 37 11.0 NNW 6 15 3 8 1013.5 - 0.0
04/10:30am 34.7 36.1 19.5 40 10.2 NE 11 19 6 10 1013.4 - 0.0
04/10:00am 33.8 35.0 19.8 43 9.4 NE 13 19 7 10 1013.5 - 0.0
04/09:30am 33.0 33.1 19.1 43 9.3 NE 17 24 9 13 1013.5 - 0.0
04/09:00am 32.1 31.7 19.4 47 8.5 NE 20 28 11 15 1013.5 1010.6 0.2
04/08:30am 31.2 29.8 18.9 48 8.1 ENE 24 32 13 17 1013.5 - 0.2
04/08:00am 30.9 29.2 17.2 43 8.8 ENE 22 30 12 16 1012.9 - 0.2
04/07:30am 30.4 27.1 14.1 37 10.0 E 24 32 13 17 1012.0 - 0.2
04/07:00am 30.6 27.6 13.8 35 10.3 E 22 30 12 16 1011.5 - 0.2
04/06:30am 31.7 28.1 12.0 30 11.8 E 22 37 12 20 1011.1 - 0.2
04/06:00am 30.9 25.9 9.7 27 12.2 ESE 26 39 14 21 1010.1 1007.1 0.2
04/05:30am 31.0 25.0 8.7 25 12.6 SE 30 43 16 23 1009.6 - 0.2
04/05:00am 31.3 25.1 7.7 23 13.2 SE 30 39 16 21 1009.0 - 0.2
04/04:30am 31.8 25.9 7.5 22 13.6 SE 28 35 15 19 1008.9 - 0.2
04/04:00am 32.2 26.8 7.8 22 13.7 SE 26 37 14 20 1008.8 - 0.2
04/03:30am 32.3 27.6 7.9 22 13.8 SSE 22 32 12 17 1008.6 - 0.2
04/03:00am 32.4 27.9 8.6 23 13.6 SSE 22 30 12 16 1008.7 1005.7 0.2
04/02:30am 33.0 29.0 10.4 25 13.3 SE 22 28 12 15 1009.0 - 0.2
04/02:00am 33.4 30.0 11.3 26 13.2 E 20 30 11 16 1009.5 - 0.2
04/01:30am 32.1 29.0 12.3 29 11.9 SSE 20 26 11 14 1009.0 - 0.2
04/01:00am 33.3 30.2 12.3 28 12.7 SSE 20 26 11 14 1009.7 - 0.2
04/12:30am 33.2 30.8 12.8 29 12.4 S 17 20 9 11 1010.0 - 0.2
04/12:00am 32.8 31.0 13.4 30 11.9 SSE 15 17 8 9 1010.2 1007.2 0.2
 
Date/Time
CST
Temp
°C
App
Temp
°C
Dew
Point
Rel
Hum
%
Delta-T
°C
Wind Press
QNH
hPa
Press
MSL
hPa
Rain
since 9 am
mm
Dir
 
Spd
km/h
Gust
km/h
Spd
kts
Gust
kts
03/11:30pm 32.8 30.9 12.9 29 12.1 SSE 15 19 8 10 1010.2 - 0.2
03/11:00pm 32.4 31.1 13.6 32 11.6 SSE 13 17 7 9 1010.4 - 0.2
03/10:30pm 32.1 30.5 13.8 33 11.3 S 15 15 8 8 1010.3 - 0.2
03/10:00pm 32.6 31.0 13.8 32 11.6 S 15 17 8 9 1010.0 - 0.2
03/09:30pm 32.9 31.0 13.0 30 12.2 S 15 15 8 8 1009.7 - 0.2
03/09:00pm 33.3 31.5 13.4 30 12.3 S 15 17 8 9 1009.6 1006.6 0.2
03/08:30pm 33.6 32.8 14.1 30 12.1 SSE 11 13 6 7 1009.2 - 0.2
03/08:00pm 34.6 33.6 13.4 28 13.1 SSE 11 13 6 7 1008.9 - 0.2
03/07:30pm 36.2 35.2 12.4 24 14.6 SE 9 11 5 6 1008.7 - 0.2
03/07:00pm 38.4 36.9 10.7 19 16.7 E 9 13 5 7 1008.5 - 0.2
03/06:30pm 39.6 37.8 10.8 18 17.5 NE 11 15 6 8 1008.5 - 0.2
03/06:00pm 39.4 37.2 10.7 18 17.4 ENE 13 19 7 10 1008.5 1005.5 0.2
03/05:30pm 39.9 37.9 10.2 17 17.9 ENE 11 19 6 10 1008.5 - 0.2
03/05:00pm 39.5 36.8 9.0 16 18.0 NE 13 24 7 13 1008.6 - 0.2
03/04:30pm 40.7 37.1 10.0 16 18.5 ENE 19 30 10 16 1008.5 - 0.2
03/04:00pm 40.6 37.3 10.8 17 18.1 E 19 26 10 14 1008.6 - 0.2
03/03:30pm 39.9 36.8 10.2 17 17.9 NNE 17 28 9 15 1009.0 - 0.2
03/03:00pm 40.9 37.4 10.1 16 18.6 ENE 19 26 10 14 1009.2 1006.3 0.2
03/02:30pm 40.6 36.1 9.9 16 18.5 ENE 24 32 13 17 1009.5 - 0.2
03/02:00pm 40.6 37.8 9.9 16 18.5 ESE 15 22 8 12 1009.8 - 0.2
03/01:30pm 39.9 37.4 11.1 18 17.6 SE 15 26 8 14 1010.3 - 0.2
03/01:00pm 38.7 35.6 11.7 20 16.5 SE 19 28 10 15 1010.7 - 0.2
03/12:30pm 38.6 35.2 12.4 21 16.2 SSE 22 32 12 17 1010.9 - 0.2
03/12:00pm 36.7 32.4 12.2 23 15.0 SSE 26 35 14 19 1011.1 1008.2 0.2
03/11:30am 36.0 32.4 12.9 25 14.3 SSE 24 35 13 19 1011.4 - 0.2
03/11:00am 35.3 30.7 13.5 27 13.5 SSE 30 39 16 21 1011.4 - 0.2
03/10:30am 34.0 29.2 14.0 30 12.4 SSE 32 43 17 23 1011.7 - 0.0
03/10:00am 32.2 28.2 16.1 38 10.3 SSE 32 41 17 22 1011.9 - 0.0
03/09:30am 31.3 28.9 18.3 46 8.5 SSE 28 35 15 19 1011.7 - 0.0
03/08:30am 28.2 26.8 18.9 57 6.1 S 24 33 13 18 1011.3 - 0.6
03/08:00am 26.0 26.0 20.1 70 3.9 S 20 28 11 15 1011.1 - 0.6
03/07:30am 25.1 25.4 20.4 75 3.1 S 19 24 10 13 1011.1 - 0.6
03/07:00am 24.9 25.0 20.4 76 3.0 SSE 20 28 11 15 1010.8 - 0.6
03/06:30am 25.1 25.6 20.8 77 2.9 SSE 19 26 10 14 1010.7 - 0.6
03/06:00am 25.1 25.6 20.8 77 2.9 SSE 19 24 10 13 1010.5 1007.5 0.6
03/05:30am 25.4 26.5 20.4 74 3.3 S 15 19 8 10 1010.5 - 0.6
03/05:00am 26.8 28.3 18.9 62 5.2 S 9 15 5 8 1010.2 - 0.6
03/04:30am 26.6 26.1 19.2 64 4.8 SSW 20 26 11 14 1010.3 - 0.6
03/04:00am 25.3 26.4 20.5 75 3.2 WSW 15 20 8 11 1010.3 - 0.6
03/03:30am 25.3 24.5 20.8 76 3.0 W 26 32 14 17 1010.2 - 0.6
03/03:00am 26.9 27.5 20.3 67 4.4 SW 17 22 9 12 1009.9 1006.9 0.6
03/02:30am 25.5 26.9 21.0 76 3.0 WSW 15 22 8 12 1009.7 - 0.6
03/02:00am 25.1 26.0 20.8 77 2.9 SW 17 22 9 12 1009.7 - 0.6
03/01:30am 25.8 27.6 20.4 72 3.6 WSW 11 13 6 7 1009.7 - 0.6
03/01:00am 25.7 28.9 20.5 73 3.5 SSW 4 17 2 9 1010.1 - 0.6
03/12:30am 24.4 23.4 21.3 83 2.1 SW 28 37 15 20 1009.8 - 0.6
03/12:00am 25.7 26.3 21.1 76 3.1 WSW 19 32 10 17 1010.5 1007.5 0.6
 
Date/Time
CST
Temp
°C
App
Temp
°C
Dew
Point
Rel
Hum
%
Delta-T
°C
Wind Press
QNH
hPa
Press
MSL
hPa
Rain
since 9 am
mm
Dir
 
Spd
km/h
Gust
km/h
Spd
kts
Gust
kts
02/11:30pm 26.5 27.9 21.9 76 3.1 SW 17 26 9 14 1010.4 - 0.6
02/11:00pm 27.1 32.9 24.0 83 2.2 CALM 0 6 0 3 1010.2 - 0.6
02/10:30pm 26.0 29.5 22.9 83 2.1 E 9 19 5 10 1011.4 - 0.6
02/10:17pm 26.7 25.6 21.0 71 3.8 NNE 28 37 15 20 1011.5 - 0.2
02/10:00pm 31.8 30.5 19.1 47 8.4 ENE 24 39 13 21 1010.8 - 0.0
02/09:30pm 32.2 31.3 19.8 48 8.3 ENE 24 35 13 19 1010.3 - 0.0
02/09:14pm 33.6 30.8 18.1 39 10.2 ENE 30 48 16 26 1009.2 - 0.0
02/09:00pm 34.5 35.3 16.4 34 11.7 WNW 7 7 4 4 1008.2 1005.2 0.0
02/08:30pm 35.0 35.6 15.8 31 12.3 NNW 7 9 4 5 1007.8 - 0.0
02/08:00pm 35.7 36.0 14.9 29 13.2 NW 7 9 4 5 1007.0 - 0.0
02/07:30pm 36.7 36.9 14.6 26 14.0 NNW 7 9 4 5 1006.5 - 0.0
02/07:00pm 37.6 36.3 13.6 24 15.0 NW 13 19 7 10 1006.1 - 0.0
02/06:30pm 38.3 36.9 13.5 23 15.6 NW 13 20 7 11 1005.8 - 0.0
02/06:00pm 38.5 37.0 14.3 23 15.4 WNW 15 20 8 11 1005.4 1002.4 0.0
02/05:30pm 38.9 36.3 13.3 22 16.0 NNW 19 24 10 13 1005.3 - 0.0
02/05:00pm 39.7 36.2 13.3 21 16.6 NNW 24 30 13 16 1005.3 - 0.0
02/04:30pm 39.8 35.7 12.6 20 16.9 WNW 26 32 14 17 1005.3 - 0.0
02/04:00pm 41.0 39.0 12.8 19 17.7 W 15 32 8 17 1005.3 - 0.0
02/03:30pm 40.9 37.9 12.7 19 17.6 WNW 20 28 11 15 1005.5 - 0.0
02/03:00pm 40.3 34.8 7.7 14 19.0 NNE 26 41 14 22 1005.7 1002.7 0.0
02/02:30pm 41.7 37.4 7.7 13 19.9 N 20 41 11 22 1006.0 - 0.0
02/02:00pm 41.5 36.6 8.6 14 19.5 N 24 33 13 18 1006.8 - 0.0
02/01:30pm 40.8 37.0 9.1 15 18.9 N 19 30 10 16 1007.4 - 0.0
02/01:00pm 40.3 37.0 9.6 16 18.4 NNE 17 28 9 15 1008.0 - 0.0
02/12:30pm 40.2 36.8 11.3 18 17.7 NE 20 39 11 21 1008.7 - 0.0
02/12:00pm 39.3 34.8 11.4 19 17.1 NE 26 41 14 22 1009.0 1006.1 0.0
02/11:30am 39.0 34.3 12.0 20 16.6 NE 28 41 15 22 1009.5 - 0.0
02/11:00am 37.4 31.8 11.4 21 15.8 NE 32 44 17 24 1009.6 - 0.0
02/10:30am 36.6 30.6 12.1 23 15.0 NE 35 46 19 25 1009.5 - 0.0
02/10:00am 35.1 28.9 11.5 24 14.2 NE 35 44 19 24 1009.3 - 0.0
02/09:30am 33.4 29.4 12.9 28 12.5 ENE 26 33 14 18 1009.1 - 0.0
02/09:00am 31.8 28.4 12.6 31 11.6 ENE 22 30 12 16 1009.5 1006.5 0.0
02/08:30am 30.4 27.7 12.8 34 10.6 ENE 19 26 10 14 1009.6 - 0.0
02/08:00am 30.0 28.4 12.9 35 10.3 ENE 13 19 7 10 1009.6 - 0.0
02/07:30am 29.9 28.3 12.8 35 10.3 ENE 13 17 7 9 1009.0 - 0.0
02/07:00am 29.8 28.3 13.1 36 10.1 ENE 13 17 7 9 1008.5 - 0.0
02/06:30am 29.9 28.4 13.2 36 10.1 ENE 13 15 7 8 1008.1 - 0.0
02/06:00am 29.1 28.6 13.7 38 9.4 ENE 9 13 5 7 1008.1 1005.1 0.0
02/05:30am 29.1 28.3 12.9 37 9.7 ENE 9 13 5 7 1008.2 - 0.0
02/05:00am 30.1 29.0 13.0 35 10.3 N 11 17 6 9 1008.3 - 0.0
02/04:30am 31.5 29.4 11.3 29 12.0 N 13 26 7 14 1008.1 - 0.0
02/04:00am 33.0 27.4 11.5 27 12.8 NE 32 39 17 21 1007.4 - 0.0
02/03:57am 33.0 27.4 11.5 27 12.8 NE 32 39 17 21 1007.3 - 0.0
02/03:30am 32.0 30.8 12.8 31 11.7 NE 11 15 6 8 1007.5 - 0.0
02/03:00am 31.0 30.7 15.4 38 9.8 E 11 13 6 7 1007.9 1004.9 0.0
02/02:30am 31.9 31.2 15.4 37 10.4 NE 13 17 7 9 1008.1 - 0.0
02/02:00am 31.6 31.9 15.1 36 10.3 ENE 7 11 4 6 1008.1 - 0.0
02/01:30am 32.1 32.1 15.1 35 10.7 ENE 9 13 5 7 1008.0 - 0.0
02/01:00am 32.3 32.2 14.9 35 10.9 ENE 9 13 5 7 1008.2 - 0.0
02/12:30am 33.1 31.0 13.7 31 12.0 E 17 22 9 12 1008.3 - 0.0
02/12:00am 33.2 31.5 14.8 33 11.6 SE 17 24 9 13 1007.9 1004.9 0.0
 
Date/Time
CST
Temp
°C
App
Temp
°C
Dew
Point
Rel
Hum
%
Delta-T
°C
Wind Press
QNH
hPa
Press
MSL
hPa
Rain
since 9 am
mm
Dir
 
Spd
km/h
Gust
km/h
Spd
kts
Gust
kts
01/11:30pm 33.2 31.9 14.8 33 11.6 SE 15 19 8 10 1007.9 - 0.0
01/11:00pm 33.6 31.9 14.6 31 11.9 SE 17 22 9 12 1008.1 - 0.0
01/10:30pm 33.3 32.2 14.4 32 11.8 SSE 13 15 7 8 1008.0 - 0.0
01/10:00pm 33.7 33.7 14.2 30 12.2 S 7 17 4 9 1007.9 - 0.0
01/09:30pm 34.1 34.6 15.1 32 12.0 SSW 6 7 3 4 1007.7 - 0.0
01/09:00pm 35.1 34.8 13.3 27 13.5 ESE 7 9 4 5 1007.4 1004.4 0.0
01/08:30pm 34.8 35.2 15.2 31 12.4 ESE 7 9 4 5 1006.9 - 0.0
01/08:00pm 35.7 35.0 13.2 26 13.9 E 9 11 5 6 1006.5 - 0.0
01/07:30pm 36.9 36.7 13.0 24 14.8 N 6 9 3 5 1006.1 - 0.0
01/07:00pm 37.8 36.2 11.7 21 15.9 NNW 11 13 6 7 1006.0 - 0.0
01/06:30pm 37.9 38.5 11.8 21 16.0 CALM 0 0 0 0 1006.1 - 0.0
01/06:00pm 38.1 38.0 12.0 21 16.1 S 4 7 2 4 1006.0 1003.0 0.0
01/05:30pm 38.7 37.5 11.7 20 16.5 ESE 9 13 5 7 1005.9 - 0.0
01/05:00pm 39.2 37.5 11.3 19 17.0 ENE 11 20 6 11 1006.0 - 0.0

Other Formats:

Comma delimited format used in spreadsheet applications
http://www.bom.gov.au/fwo/IDD60801/IDD60801.94321.axf

JavaScript Object Notation format (JSON) in row-major order
http://www.bom.gov.au/fwo/IDD60801/IDD60801.94321.json